Air Park, Nebraska
Current Conditions -  °F | °C
As of 6:54 PM on Monday 20 Oct 2014 (Local Time) from KLNK Reporting Station
Clear Clear  
Wind Chill: 58°   Ceiling: Unl
Heat Index: 58°   Visibility: 10mi
Dew Point: 38°   Wind: 5mph
Humidity: 47%   Direction: 30°NNE
Pressure: 30.05"   Gusts: NA
Location:  40.8731°N, 96.8015°W
Report Text: KLNK 202354Z 03004KT 10SM CLR 14/03 A3005 RMK AO2 SLP179 T01440033 10239 20144 55002
Loading
Personal Weather Stations






























Interactive Weather Map
Tropical Storm Tracking
New forecast layout! Learn more

10-Day Weather Forecast

Advertisements
Track Severe Weather on mobile